Cape Henry — KMJH — position and weather

sailwx.info

Track history (hours):
 
Tides and Currents Weather Stations Pressure Air Temp Water Temp Dewpoint Dewpoint Depression Visibility Wind Speed Wind Dir Waves Ship Positions

Cape Henry

Owner: MARITIME ADMINISTRATION, RALEIGH, NC. More information available from US FCC via Universal Licensing System and Coast Guard Vessel Documentation Center.

Last reported at 2017-Sep-24 23:22 UTC. Time now 2017-Nov-24 05:52 UTC.
Position N 37°46' W 122°18'.
Warning: this ship's position is months out of date.

Length 228 m.

Type: Cargo ship. MMSI: 303943000.

Date/timePositionNaut miles runAvg speedWind from/ knotsBaromVisibWave heightAir tempDewpointWater temp
2017-Sep-24 23:22N 37°46' W 122°18'0 0.0
2017-Sep-24 22:58N 37°46' W 122°18'0 0.0
2017-Sep-24 22:31N 37°46' W 122°18'0 0.7
2017-Sep-24 22:01N 37°46' W 122°19'3 5.3
2017-Sep-24 21:30N 37°47' W 122°22'5 9.9
2017-Sep-24 21:01N 37°49' W 122°27'815.0
2017-Sep-24 20:30N 37°46' W 122°36'612.8
2017-Sep-24 20:01N 37°43' W 122°43'510.6
2017-Sep-24 19:30N 37°40' W 122°49'5 9.8
2017-Sep-24 19:00N 37°37' W 122°54'5 9.8
2017-Sep-24 18:31N 37°34' W 122°59'5 9.1
2017-Sep-24 18:01N 37°32' W 123°04'510.4
2017-Sep-24 17:31N 37°31' W 123°10'5 9.2
2017-Sep-24 17:00N 37°26' W 123°11'714.5
2017-Sep-24 16:30N 37°19' W 123°09'918.6
2017-Sep-24 16:01N 37°10' W 123°06'918.5
2017-Sep-24 15:31N 37°01' W 123°03'918.6
2017-Sep-24 15:01N 36°52' W 123°01'918.5
2017-Sep-24 14:31N 36°43' W 122°58'1018.3
2017-Sep-24 13:56N 36°33' W 122°55'818.7
2017-Sep-24 13:31N 36°25' W 122°52'8 8.0
2017-Sep-24 12:27N 36°23' W 123°02'919.7
2017-Sep-24 12:00N 36°29' W 123°10'1319.9
2017-Sep-24 11:20N 36°38' W 123°23'619.8
2017-Sep-24 11:00N 36°42' W 123°29'1019.4
2017-Sep-24 10:30N 36°48' W 123°38'1519.4
2017-Sep-24 09:44N 36°58' W 123°53'419.5
2017-Sep-24 09:30N 37°01' W 123°57'8919.4
2017-Sep-24 04:55N 38°02' W 125°20'1516.3
2017-Sep-24 04:01N 38°13' W 125°32'012.5
2017-Sep-24 04:00N 38°13' W 125°32'153 3.1
2017-Sep-22 01:59N 37°46' W 122°21'0 0.0
2017-Sep-22 01:29N 37°46' W 122°21'0 0.0
2017-Sep-22 00:59N 37°46' W 122°21'0 0.0
2017-Sep-22 00:29N 37°46' W 122°21'0 0.0
2017-Sep-21 23:59N 37°46' W 122°21'0 0.0
2017-Sep-21 23:29N 37°46' W 122°21'0 0.0
2017-Sep-21 22:59N 37°46' W 122°21'0 0.1
2017-Sep-21 22:29N 37°46' W 122°21'0 0.1
2017-Sep-21 21:59N 37°46' W 122°21'0 0.0
2017-Sep-21 21:29N 37°46' W 122°21'0 0.1
2017-Sep-21 20:56N 37°46' W 122°21'0 0.1
2017-Sep-21 20:30N 37°46' W 122°21'0 0.1
2017-Sep-21 19:58N 37°46' W 122°21'0 0.1
2017-Sep-21 19:31N 37°46' W 122°21'0 0.0
2017-Sep-21 18:58N 37°46' W 122°21'0 0.0
2017-Sep-21 18:28N 37°46' W 122°21'0 0.0
2017-Sep-21 17:58N 37°46' W 122°21'0 0.0
2017-Sep-21 17:28N 37°46' W 122°21'0 0.0
2017-Sep-21 16:58N 37°46' W 122°21'0 0.0
2017-Sep-21 16:28N 37°46' W 122°21'0 0.1
2017-Sep-21 15:58N 37°46' W 122°21'0 0.1
2017-Sep-21 15:30N 37°46' W 122°21'0 0.2
2017-Sep-21 15:00N 37°46' W 122°21'0 0.2
2017-Sep-21 14:28N 37°46' W 122°21'0 0.0
2017-Sep-21 13:58N 37°46' W 122°21'0 0.0
2017-Sep-21 13:28N 37°46' W 122°21'0 0.1
2017-Sep-21 12:58N 37°46' W 122°21'0 0.0
2017-Sep-21 12:30N 37°46' W 122°21'0 0.0
2017-Sep-21 11:58N 37°46' W 122°21'0 0.0
2017-Sep-21 11:31N 37°46' W 122°21'0 0.0
2017-Sep-21 11:00N 37°46' W 122°21'0 0.1
2017-Sep-21 10:30N 37°46' W 122°21'0 0.1
2017-Sep-21 10:00N 37°46' W 122°21'0 0.2
2017-Sep-21 09:30N 37°46' W 122°21'0 0.1
2017-Sep-21 09:00N 37°46' W 122°21'0 0.0
2017-Sep-21 08:30N 37°46' W 122°21'0 0.1
2017-Sep-21 08:00N 37°46' W 122°21'0 0.1
2017-Sep-21 07:31N 37°46' W 122°21'0 0.0
2017-Sep-21 07:00N 37°46' W 122°21'0 0.0
2017-Sep-21 06:31N 37°46' W 122°21'0 0.0
2017-Sep-21 06:00N 37°46' W 122°21'0 0.0
2017-Sep-21 05:30N 37°46' W 122°21'0 0.0
2017-Sep-21 05:00N 37°46' W 122°21'0 0.0
2017-Sep-21 04:30N 37°46' W 122°21'0 0.0
2017-Sep-21 04:00N 37°46' W 122°21'0 0.0
2017-Sep-21 03:30N 37°46' W 122°21'0 0.1
2017-Sep-21 03:00N 37°46' W 122°21'0 0.1
2017-Sep-21 02:30N 37°46' W 122°21'0 0.3
2017-Sep-21 02:00N 37°46' W 122°21'0 0.0
2017-Sep-21 01:30N 37°46' W 122°21'0 0.1
2017-Sep-21 01:00N 37°46' W 122°21'0 0.1
2017-Sep-21 00:30N 37°46' W 122°21'0 0.0
2017-Sep-21 00:01N 37°46' W 122°21'0 0.0
2017-Sep-20 23:30N 37°46' W 122°21'0 0.1
2017-Sep-20 23:00N 37°46' W 122°21'1 2.2
2017-Sep-20 22:30N 37°47' W 122°22'3 6.0
2017-Sep-20 22:00N 37°44' W 122°21'3 5.0
2017-Sep-20 21:31N 37°47' W 122°22'3 5.6
2017-Sep-20 21:00N 37°46' W 122°18'0 0.1
2017-Sep-20 20:28N 37°46' W 122°18'0 0.0
2017-Sep-20 19:58N 37°46' W 122°18'0 0.0
2017-Sep-20 19:28N 37°46' W 122°18'0 0.0
2017-Sep-20 18:58N 37°46' W 122°18'0 0.0
2017-Sep-20 18:28N 37°46' W 122°18'0 0.0
2017-Sep-20 17:58N 37°46' W 122°18'0 0.0
2017-Sep-20 17:28N 37°46' W 122°18'0 0.0
2017-Sep-20 16:58N 37°46' W 122°18'0 0.0
2017-Sep-20 16:31N 37°46' W 122°18'0 0.0
2017-Sep-20 16:01N 37°46' W 122°18'0 0.0
2017-Sep-20 15:28N 37°46' W 122°18'0 0.0
2017-Sep-20 15:01N 37°46' W 122°18'0 0.0
2017-Sep-20 13:55N 37°46' W 122°18'0 0.0
2017-Sep-20 13:28N 37°46' W 122°18'0 0.0
2017-Sep-20 12:58N 37°46' W 122°18'0 0.0
2017-Sep-20 12:28N 37°46' W 122°18'0 0.0
2017-Sep-20 11:58N 37°46' W 122°18'0 0.0
2017-Sep-20 11:28N 37°46' W 122°18'0 0.0
2017-Sep-20 11:01N 37°46' W 122°18'0 0.0
2017-Sep-20 10:28N 37°46' W 122°18'0 0.0
2017-Sep-20 09:58N 37°46' W 122°18'0 0.0
2017-Sep-20 09:28N 37°46' W 122°18'0 0.0
2017-Sep-20 08:58N 37°46' W 122°18'0 0.0
2017-Sep-20 08:28N 37°46' W 122°18'0 0.0
2017-Sep-20 07:58N 37°46' W 122°18'0 0.0
2017-Sep-20 07:28N 37°46' W 122°18'0 0.0
2017-Sep-20 06:58N 37°46' W 122°18'0 0.0
2017-Sep-20 06:28N 37°46' W 122°18'0 0.0
2017-Sep-20 05:57N 37°46' W 122°18'0 0.0
2017-Sep-20 05:28N 37°46' W 122°18'0 0.0
2017-Sep-20 04:58N 37°46' W 122°18'0 0.0
2017-Sep-20 04:28N 37°46' W 122°18'0 0.0
2017-Sep-20 03:57N 37°46' W 122°18'0 0.0
2017-Sep-20 03:31N 37°46' W 122°18'0 0.0
2017-Sep-20 03:00N 37°46' W 122°18'0 0.0
2017-Sep-20 02:25N 37°46' W 122°18'0 0.0
2017-Sep-20 02:00N 37°46' W 122°18'0 0.0
2017-Sep-20 01:27N 37°46' W 122°18'0 0.0
2017-Sep-20 01:00N 37°46' W 122°18'0 0.0
2017-Sep-20 00:31N 37°46' W 122°18'0 0.0
2017-Sep-20 00:00N 37°46' W 122°18'0 0.0
2017-Sep-19 23:31N 37°46' W 122°18'0 0.0
2017-Sep-19 23:01N 37°46' W 122°18'0 0.0
2017-Sep-19 22:28N 37°46' W 122°18'0 0.0
2017-Sep-19 21:57N 37°46' W 122°18'0 0.0
2017-Sep-19 21:31N 37°46' W 122°18'0 0.0
2017-Sep-19 21:00N 37°46' W 122°18'0 0.0
2017-Sep-19 20:31N 37°46' W 122°18'0 0.0
2017-Sep-19 20:00N 37°46' W 122°18'0 0.0
2017-Sep-19 19:31N 37°46' W 122°18'0 0.0
2017-Sep-19 19:01N 37°46' W 122°18'0 0.0
2017-Sep-19 18:30N 37°46' W 122°18'0 0.0
2017-Sep-19 18:00N 37°46' W 122°18'0 0.0
2017-Sep-19 17:31N 37°46' W 122°18'0 0.0
2017-Sep-19 17:00N 37°46' W 122°18'0 0.0
2017-Sep-19 16:31N 37°46' W 122°18'0 0.0
2017-Sep-19 16:00N 37°46' W 122°18'0 0.0
2017-Sep-19 15:29N 37°46' W 122°18'0 0.0
2017-Sep-19 14:59N 37°46' W 122°18'0 0.0
2017-Sep-19 14:29N 37°46' W 122°18'0 0.0
2017-Sep-19 13:59N 37°46' W 122°18'0 0.0
2017-Sep-19 13:29N 37°46' W 122°18'0 0.0
2017-Sep-19 12:59N 37°46' W 122°18'0 0.0
2017-Sep-19 12:29N 37°46' W 122°18'0 0.0
2017-Sep-19 11:59N 37°46' W 122°18'0 0.0
2017-Sep-19 11:29N 37°46' W 122°18'0 0.0
2017-Sep-19 10:59N 37°46' W 122°18'0 0.0
2017-Sep-19 10:29N 37°46' W 122°18'0 0.0
2017-Sep-19 09:59N 37°46' W 122°18'0 0.0
2017-Sep-19 09:29N 37°46' W 122°18'0 0.0
2017-Sep-19 08:59N 37°46' W 122°18'0 0.0
2017-Sep-19 08:29N 37°46' W 122°18'0 0.0
2017-Sep-19 07:59N 37°46' W 122°18'0 0.0
2017-Sep-19 07:29N 37°46' W 122°18'0 0.0
2017-Sep-19 06:59N 37°46' W 122°18'0 0.0
2017-Sep-19 06:29N 37°46' W 122°18'0 0.0
2017-Sep-19 05:59N 37°46' W 122°18'0 0.0
2017-Sep-19 05:29N 37°46' W 122°18'0 0.0
2017-Sep-19 04:59N 37°46' W 122°18'0 0.0
2017-Sep-19 04:29N 37°46' W 122°18'0 0.0
2017-Sep-19 03:59N 37°46' W 122°18'0 0.0
2017-Sep-19 03:29N 37°46' W 122°18'0 0.0
2017-Sep-19 02:59N 37°46' W 122°18'0 0.0
2017-Sep-19 02:29N 37°46' W 122°18'0 0.0
2017-Sep-19 01:59N 37°46' W 122°18'0 0.0
2017-Sep-19 01:29N 37°46' W 122°18'0 0.0
2017-Sep-19 00:59N 37°46' W 122°18'0 0.0
2017-Sep-19 00:29N 37°46' W 122°18'0 0.0
2017-Sep-18 23:59N 37°46' W 122°18'0 0.0
2017-Sep-18 23:29N 37°46' W 122°18'0 0.0
2017-Sep-18 22:59N 37°46' W 122°18'0 0.0
2017-Sep-18 22:29N 37°46' W 122°18'0 0.0
2017-Sep-18 21:59N 37°46' W 122°18'0 0.0
2017-Sep-18 21:29N 37°46' W 122°18'0 0.0
2017-Sep-18 20:59N 37°46' W 122°18'0 0.0
2017-Sep-18 20:29N 37°46' W 122°18'0 0.0
2017-Sep-18 19:59N 37°46' W 122°18'0 0.0
2017-Sep-18 19:29N 37°46' W 122°18'0 0.0
2017-Sep-18 18:59N 37°46' W 122°18'0 0.0
2017-Sep-18 18:29N 37°46' W 122°18'0 0.0
2017-Sep-18 17:59N 37°46' W 122°18'0 0.0
2017-Sep-18 17:29N 37°46' W 122°18'0 0.0
2017-Sep-18 16:59N 37°46' W 122°18'0 0.0
2017-Sep-18 16:29N 37°46' W 122°18'0 0.0
2017-Sep-18 15:59N 37°46' W 122°18'0 0.0
2017-Sep-18 15:29N 37°46' W 122°18'0 0.0
2017-Sep-18 14:59N 37°46' W 122°18'0 0.0
2017-Sep-18 14:29N 37°46' W 122°18'0 0.0
2017-Sep-18 13:59N 37°46' W 122°18'0 0.0
2017-Sep-18 13:29N 37°46' W 122°18'0 0.0
2017-Sep-18 12:59N 37°46' W 122°18'0 0.0
2017-Sep-18 12:29N 37°46' W 122°18'0 0.0
2017-Sep-18 11:59N 37°46' W 122°18'0 0.0
2017-Sep-18 11:29N 37°46' W 122°18'0 0.0
2017-Sep-18 10:59N 37°46' W 122°18'0 0.0
2017-Sep-18 10:29N 37°46' W 122°18'0 0.0
2017-Sep-18 09:59N 37°46' W 122°18'0 0.0
2017-Sep-18 09:29N 37°46' W 122°18'0 0.0
2017-Sep-18 08:59N 37°46' W 122°18'0 0.0
2017-Sep-18 08:29N 37°46' W 122°18'0 0.0
2017-Sep-18 07:59N 37°46' W 122°18'0 0.0
2017-Sep-18 07:29N 37°46' W 122°18'0 0.0
2017-Sep-18 06:59N 37°46' W 122°18'0 0.0
2017-Sep-18 06:29N 37°46' W 122°18'0 0.0
2017-Sep-18 05:59N 37°46' W 122°18'0 0.0
2017-Sep-18 05:29N 37°46' W 122°18'0 0.0
2017-Sep-18 04:59N 37°46' W 122°18'0 0.0
2017-Sep-18 04:29N 37°46' W 122°18'0 0.0
2017-Sep-18 03:59N 37°46' W 122°18'0 0.0
2017-Sep-18 03:29N 37°46' W 122°18'0 0.0
2017-Sep-18 02:59N 37°46' W 122°18'0 0.0
2017-Sep-18 02:29N 37°46' W 122°18'0 0.0
2017-Sep-18 01:59N 37°46' W 122°18'0 0.0
2017-Sep-18 01:29N 37°46' W 122°18'0 0.0
2017-Sep-18 00:59N 37°46' W 122°18'0 0.0
2017-Sep-18 00:29N 37°46' W 122°18'0 0.0
2017-Sep-17 23:59N 37°46' W 122°18'0 0.0
2017-Sep-17 23:29N 37°46' W 122°18'0 0.0
2017-Sep-17 22:59N 37°46' W 122°18'0 0.0
2017-Sep-17 22:29N 37°46' W 122°18'0 0.0
2017-Sep-17 21:59N 37°46' W 122°18'0 0.0
2017-Sep-17 21:29N 37°46' W 122°18'0 0.0
2017-Sep-17 20:59N 37°46' W 122°18'0 0.0
2017-Sep-17 20:29N 37°46' W 122°18'0 0.0
2017-Sep-17 19:59N 37°46' W 122°18'0 0.0
2017-Sep-17 19:29N 37°46' W 122°18'0 0.0
2017-Sep-17 18:59N 37°46' W 122°18'0 0.0
2017-Sep-17 18:29N 37°46' W 122°18'0 0.0
2017-Sep-17 17:59N 37°46' W 122°18'0 0.0
2017-Sep-17 17:29N 37°46' W 122°18'0 0.0
2017-Sep-17 16:59N 37°46' W 122°18'0 0.0
2017-Sep-17 16:29N 37°46' W 122°18'0 0.0
2017-Sep-17 15:59N 37°46' W 122°18'0 0.0
2017-Sep-17 15:29N 37°46' W 122°18'0 0.0
2017-Sep-17 14:59N 37°46' W 122°18'0 0.0
2017-Sep-17 14:29N 37°46' W 122°18'0 0.0
2017-Sep-17 13:59N 37°46' W 122°18'0 0.0
2017-Sep-17 13:29N 37°46' W 122°18'0 0.0
2017-Sep-17 12:59N 37°46' W 122°18'0 0.0
2017-Sep-17 12:29N 37°46' W 122°18'0 0.0
2017-Sep-17 11:59N 37°46' W 122°18'0 0.0
2017-Sep-17 11:29N 37°46' W 122°18'0 0.0
2017-Sep-17 10:59N 37°46' W 122°18'0 0.0
2017-Sep-17 10:29N 37°46' W 122°18'0 0.0
2017-Sep-17 09:59N 37°46' W 122°18'0 0.0
2017-Sep-17 09:29N 37°46' W 122°18'0 0.0
2017-Sep-17 08:59N 37°46' W 122°18'0 0.0
2017-Sep-17 08:29N 37°46' W 122°18'0 0.0
2017-Sep-17 07:59N 37°46' W 122°18'0 0.0
2017-Sep-17 07:29N 37°46' W 122°18'0 0.0
2017-Sep-17 06:59N 37°46' W 122°18'0 0.0
2017-Sep-17 06:29N 37°46' W 122°18'0 0.0
2017-Sep-17 05:59N 37°46' W 122°18'0 0.0
2017-Sep-17 05:29N 37°46' W 122°18'0 0.0
2017-Sep-17 04:59N 37°46' W 122°18'0 0.0
2017-Sep-17 04:29N 37°46' W 122°18'0 0.0
2017-Sep-17 03:59N 37°46' W 122°18'0 0.0
2017-Sep-17 03:29N 37°46' W 122°18'0 0.0
2017-Sep-17 02:59N 37°46' W 122°18'0 0.0
2017-Sep-17 02:29N 37°46' W 122°18'0 0.0
2017-Sep-17 01:59N 37°46' W 122°18'0 0.0
2017-Sep-17 01:29N 37°46' W 122°18'0 0.0
2017-Sep-17 00:59N 37°46' W 122°18'0 0.0
2017-Sep-17 00:29N 37°46' W 122°18'0 0.0
2017-Sep-16 23:59N 37°46' W 122°18'0 0.0
2017-Sep-16 23:29N 37°46' W 122°18'0 0.0
2017-Sep-16 22:59N 37°46' W 122°18'0 0.0
2017-Sep-16 22:29N 37°46' W 122°18'0 0.0
2017-Sep-16 21:59N 37°46' W 122°18'0 0.0
2017-Sep-16 21:29N 37°46' W 122°18'0 0.0
2017-Sep-16 20:59N 37°46' W 122°18'0 0.0
2017-Sep-16 20:29N 37°46' W 122°18'0 0.0
2017-Sep-16 19:59N 37°46' W 122°18'0 0.0
2017-Sep-16 19:29N 37°46' W 122°18'0 0.0
2017-Sep-16 18:59N 37°46' W 122°18'0 0.0
2017-Sep-16 18:29N 37°46' W 122°18'0 0.0
2017-Sep-16 17:59N 37°46' W 122°18'0 0.0
2017-Sep-16 17:29N 37°46' W 122°18'0 0.0
2017-Sep-16 16:59N 37°46' W 122°18'0 0.0
2017-Sep-16 16:29N 37°46' W 122°18'0 0.0
2017-Sep-16 15:59N 37°46' W 122°18'0 0.0
2017-Sep-16 15:29N 37°46' W 122°18'0 0.0
2017-Sep-16 14:59N 37°46' W 122°18'0 0.0
2017-Sep-16 14:29N 37°46' W 122°18'0 0.0
2017-Sep-16 13:59N 37°46' W 122°18'0 0.0
2017-Sep-16 13:29N 37°46' W 122°18'0 0.0
2017-Sep-16 12:59N 37°46' W 122°18'0 0.0
2017-Sep-16 12:29N 37°46' W 122°18'0 0.0
2017-Sep-16 11:59N 37°46' W 122°18'0 0.0
2017-Sep-16 11:29N 37°46' W 122°18'0 0.0
2017-Sep-16 10:59N 37°46' W 122°18'0 0.0
2017-Sep-16 10:29N 37°46' W 122°18'0 0.0
2017-Sep-16 09:59N 37°46' W 122°18'0 0.0
2017-Sep-16 09:29N 37°46' W 122°18'0 0.0
2017-Sep-16 08:59N 37°46' W 122°18'0 0.0
2017-Sep-16 08:29N 37°46' W 122°18'0 0.0
2017-Sep-16 07:59N 37°46' W 122°18'0 0.0
2017-Sep-16 07:29N 37°46' W 122°18'0 0.0
2017-Sep-16 06:59N 37°46' W 122°18'0 0.0
2017-Sep-16 06:29N 37°46' W 122°18'0 0.0
2017-Sep-16 05:59N 37°46' W 122°18'0 0.0
2017-Sep-16 05:29N 37°46' W 122°18'0 0.0
2017-Sep-16 04:59N 37°46' W 122°18'0 0.0
2017-Sep-16 04:29N 37°46' W 122°18'0 0.0
2017-Sep-16 03:59N 37°46' W 122°18'0 0.0
2017-Sep-16 03:29N 37°46' W 122°18'0 0.0
2017-Sep-16 02:59N 37°46' W 122°18'0 0.0
2017-Sep-16 02:29N 37°46' W 122°18'0 0.0
2017-Sep-16 01:59N 37°46' W 122°18'0 0.0
2017-Sep-16 01:29N 37°46' W 122°18'0 0.0
2017-Sep-16 00:59N 37°46' W 122°18'0 0.0
2017-Sep-16 00:29N 37°46' W 122°18'0 0.0
2017-Sep-15 23:59N 37°46' W 122°18'0 0.0
2017-Sep-15 23:29N 37°46' W 122°18'0 0.0
2017-Sep-15 22:59N 37°46' W 122°18'0 0.0
2017-Sep-15 22:29N 37°46' W 122°18'0 0.0
2017-Sep-15 21:59N 37°46' W 122°18'0 0.0
2017-Sep-15 21:29N 37°46' W 122°18'0 0.0
2017-Sep-15 20:59N 37°46' W 122°18'0 0.0
2017-Sep-15 20:29N 37°46' W 122°18'0 0.0
2017-Sep-15 19:59N 37°46' W 122°18'0 0.0
2017-Sep-15 19:29N 37°46' W 122°18'0 0.0
2017-Sep-15 18:59N 37°46' W 122°18'0 0.0
2017-Sep-15 18:29N 37°46' W 122°18'0 0.0
2017-Sep-15 17:59N 37°46' W 122°18'0 0.0
2017-Sep-15 17:29N 37°46' W 122°18'0 0.0
2017-Sep-15 16:59N 37°46' W 122°18'0 0.0
2017-Sep-15 16:29N 37°46' W 122°18'0 0.0
2017-Sep-15 15:59N 37°46' W 122°18'0 0.0
2017-Sep-15 15:29N 37°46' W 122°18'0 0.0
2017-Sep-15 14:59N 37°46' W 122°18'0 0.0
2017-Sep-15 14:29N 37°46' W 122°18'0 0.0
2017-Sep-15 13:59N 37°46' W 122°18'0 0.0
2017-Sep-15 13:29N 37°46' W 122°18'0 0.0
2017-Sep-15 12:59N 37°46' W 122°18'0 0.0
2017-Sep-15 12:29N 37°46' W 122°18'0 0.0
2017-Sep-15 11:59N 37°46' W 122°18'0 0.0
2017-Sep-15 11:29N 37°46' W 122°18'0 0.0
2017-Sep-15 10:59N 37°46' W 122°18'0 0.0
2017-Sep-15 10:29N 37°46' W 122°18'0 0.0
2017-Sep-15 09:59N 37°46' W 122°18'0 0.0
2017-Sep-15 09:29N 37°46' W 122°18'0 0.0
2017-Sep-15 08:59N 37°46' W 122°18'0 0.0
2017-Sep-15 08:29N 37°46' W 122°18'0 0.0
2017-Sep-15 07:59N 37°46' W 122°18'0 0.0
2017-Sep-15 07:29N 37°46' W 122°18'0 0.0
2017-Sep-15 06:59N 37°46' W 122°18'0 0.0
2017-Sep-15 06:29N 37°46' W 122°18'0 0.0
2017-Sep-15 05:59N 37°46' W 122°18'0 0.0
2017-Sep-15 05:29N 37°46' W 122°18'0 0.0
2017-Sep-15 04:59N 37°46' W 122°18'0 0.0
2017-Sep-15 04:29N 37°46' W 122°18'0 0.0
2017-Sep-15 03:59N 37°46' W 122°18'0 0.0
2017-Sep-15 03:29N 37°46' W 122°18'0 0.0
2017-Sep-15 03:00N 37°46' W 122°18'0 0.0
2017-Sep-15 02:29N 37°46' W 122°18'0 0.0
2017-Sep-15 01:59N 37°46' W 122°18'0 0.0
2017-Sep-15 01:29N 37°46' W 122°18'0 0.0
2017-Sep-15 00:59N 37°46' W 122°18'0 0.0
2017-Sep-15 00:29N 37°46' W 122°18'0 0.0
2017-Sep-14 23:59N 37°46' W 122°18'0 0.0
2017-Sep-14 23:29N 37°46' W 122°18'  
Track history (hours):
 
Tides and Currents Weather Stations Pressure Air Temp Water Temp Dewpoint Dewpoint Depression Visibility Wind Speed Wind Dir Waves Ship Positions

Cape Henry

Owner: MARITIME ADMINISTRATION, RALEIGH, NC. More information available from US FCC via Universal Licensing System and Coast Guard Vessel Documentation Center.

Last reported at 2017-Sep-24 23:22 UTC. Time now 2017-Nov-24 05:52 UTC.
Position N 37°46' W 122°18'.
Warning: this ship's position is months out of date.

Length 228 m.

Type: Cargo ship. MMSI: 303943000.

Date/timePositionNaut miles runAvg speedWind from/ knotsBaromVisibWave heightAir tempDewpointWater temp
2017-Sep-24 23:22N 37°46' W 122°18'0 0.0
2017-Sep-24 22:58N 37°46' W 122°18'0 0.0
2017-Sep-24 22:31N 37°46' W 122°18'0 0.7
2017-Sep-24 22:01N 37°46' W 122°19'3 5.3
2017-Sep-24 21:30N 37°47' W 122°22'5 9.9
2017-Sep-24 21:01N 37°49' W 122°27'815.0
2017-Sep-24 20:30N 37°46' W 122°36'612.8
2017-Sep-24 20:01N 37°43' W 122°43'510.6
2017-Sep-24 19:30N 37°40' W 122°49'5 9.8
2017-Sep-24 19:00N 37°37' W 122°54'5 9.8
2017-Sep-24 18:31N 37°34' W 122°59'5 9.1
2017-Sep-24 18:01N 37°32' W 123°04'510.4
2017-Sep-24 17:31N 37°31' W 123°10'5 9.2
2017-Sep-24 17:00N 37°26' W 123°11'714.5
2017-Sep-24 16:30N 37°19' W 123°09'918.6
2017-Sep-24 16:01N 37°10' W 123°06'918.5
2017-Sep-24 15:31N 37°01' W 123°03'918.6
2017-Sep-24 15:01N 36°52' W 123°01'918.5
2017-Sep-24 14:31N 36°43' W 122°58'1018.3
2017-Sep-24 13:56N 36°33' W 122°55'818.7
2017-Sep-24 13:31N 36°25' W 122°52'8 8.0
2017-Sep-24 12:27N 36°23' W 123°02'919.7
2017-Sep-24 12:00N 36°29' W 123°10'1319.9
2017-Sep-24 11:20N 36°38' W 123°23'619.8
2017-Sep-24 11:00N 36°42' W 123°29'1019.4
2017-Sep-24 10:30N 36°48' W 123°38'1519.4
2017-Sep-24 09:44N 36°58' W 123°53'419.5
2017-Sep-24 09:30N 37°01' W 123°57'8919.4
2017-Sep-24 04:55N 38°02' W 125°20'1516.3
2017-Sep-24 04:01N 38°13' W 125°32'012.5
2017-Sep-24 04:00N 38°13' W 125°32'153 3.1
2017-Sep-22 01:59N 37°46' W 122°21'0 0.0
2017-Sep-22 01:29N 37°46' W 122°21'0 0.0
2017-Sep-22 00:59N 37°46' W 122°21'0 0.0
2017-Sep-22 00:29N 37°46' W 122°21'0 0.0
2017-Sep-21 23:59N 37°46' W 122°21'0 0.0
2017-Sep-21 23:29N 37°46' W 122°21'0 0.0
2017-Sep-21 22:59N 37°46' W 122°21'0 0.1
2017-Sep-21 22:29N 37°46' W 122°21'0 0.1
2017-Sep-21 21:59N 37°46' W 122°21'0 0.0
2017-Sep-21 21:29N 37°46' W 122°21'0 0.1
2017-Sep-21 20:56N 37°46' W 122°21'0 0.1
2017-Sep-21 20:30N 37°46' W 122°21'0 0.1
2017-Sep-21 19:58N 37°46' W 122°21'0 0.1
2017-Sep-21 19:31N 37°46' W 122°21'0 0.0
2017-Sep-21 18:58N 37°46' W 122°21'0 0.0
2017-Sep-21 18:28N 37°46' W 122°21'0 0.0
2017-Sep-21 17:58N 37°46' W 122°21'0 0.0
2017-Sep-21 17:28N 37°46' W 122°21'0 0.0
2017-Sep-21 16:58N 37°46' W 122°21'0 0.0
2017-Sep-21 16:28N 37°46' W 122°21'0 0.1
2017-Sep-21 15:58N 37°46' W 122°21'0 0.1
2017-Sep-21 15:30N 37°46' W 122°21'0 0.2
2017-Sep-21 15:00N 37°46' W 122°21'0 0.2
2017-Sep-21 14:28N 37°46' W 122°21'0 0.0
2017-Sep-21 13:58N 37°46' W 122°21'0 0.0
2017-Sep-21 13:28N 37°46' W 122°21'0 0.1
2017-Sep-21 12:58N 37°46' W 122°21'0 0.0
2017-Sep-21 12:30N 37°46' W 122°21'0 0.0
2017-Sep-21 11:58N 37°46' W 122°21'0 0.0
2017-Sep-21 11:31N 37°46' W 122°21'0 0.0
2017-Sep-21 11:00N 37°46' W 122°21'0 0.1
2017-Sep-21 10:30N 37°46' W 122°21'0 0.1
2017-Sep-21 10:00N 37°46' W 122°21'0 0.2
2017-Sep-21 09:30N 37°46' W 122°21'0 0.1
2017-Sep-21 09:00N 37°46' W 122°21'0 0.0
2017-Sep-21 08:30N 37°46' W 122°21'0 0.1
2017-Sep-21 08:00N 37°46' W 122°21'0 0.1
2017-Sep-21 07:31N 37°46' W 122°21'0 0.0
2017-Sep-21 07:00N 37°46' W 122°21'0 0.0
2017-Sep-21 06:31N 37°46' W 122°21'0 0.0
2017-Sep-21 06:00N 37°46' W 122°21'0 0.0
2017-Sep-21 05:30N 37°46' W 122°21'0 0.0
2017-Sep-21 05:00N 37°46' W 122°21'0 0.0
2017-Sep-21 04:30N 37°46' W 122°21'0 0.0
2017-Sep-21 04:00N 37°46' W 122°21'0 0.0
2017-Sep-21 03:30N 37°46' W 122°21'0 0.1
2017-Sep-21 03:00N 37°46' W 122°21'0 0.1
2017-Sep-21 02:30N 37°46' W 122°21'0 0.3
2017-Sep-21 02:00N 37°46' W 122°21'0 0.0
2017-Sep-21 01:30N 37°46' W 122°21'0 0.1
2017-Sep-21 01:00N 37°46' W 122°21'0 0.1
2017-Sep-21 00:30N 37°46' W 122°21'0 0.0
2017-Sep-21 00:01N 37°46' W 122°21'0 0.0
2017-Sep-20 23:30N 37°46' W 122°21'0 0.1
2017-Sep-20 23:00N 37°46' W 122°21'1 2.2
2017-Sep-20 22:30N 37°47' W 122°22'3 6.0
2017-Sep-20 22:00N 37°44' W 122°21'3 5.0
2017-Sep-20 21:31N 37°47' W 122°22'3 5.6
2017-Sep-20 21:00N 37°46' W 122°18'0 0.1
2017-Sep-20 20:28N 37°46' W 122°18'0 0.0
2017-Sep-20 19:58N 37°46' W 122°18'0 0.0
2017-Sep-20 19:28N 37°46' W 122°18'0 0.0
2017-Sep-20 18:58N 37°46' W 122°18'0 0.0
2017-Sep-20 18:28N 37°46' W 122°18'0 0.0
2017-Sep-20 17:58N 37°46' W 122°18'0 0.0
2017-Sep-20 17:28N 37°46' W 122°18'0 0.0
2017-Sep-20 16:58N 37°46' W 122°18'0 0.0
2017-Sep-20 16:31N 37°46' W 122°18'0 0.0
2017-Sep-20 16:01N 37°46' W 122°18'0 0.0
2017-Sep-20 15:28N 37°46' W 122°18'0 0.0
2017-Sep-20 15:01N 37°46' W 122°18'0 0.0
2017-Sep-20 13:55N 37°46' W 122°18'0 0.0
2017-Sep-20 13:28N 37°46' W 122°18'0 0.0
2017-Sep-20 12:58N 37°46' W 122°18'0 0.0
2017-Sep-20 12:28N 37°46' W 122°18'0 0.0
2017-Sep-20 11:58N 37°46' W 122°18'0 0.0
2017-Sep-20 11:28N 37°46' W 122°18'0 0.0
2017-Sep-20 11:01N 37°46' W 122°18'0 0.0
2017-Sep-20 10:28N 37°46' W 122°18'0 0.0
2017-Sep-20 09:58N 37°46' W 122°18'0 0.0
2017-Sep-20 09:28N 37°46' W 122°18'0 0.0
2017-Sep-20 08:58N 37°46' W 122°18'0 0.0
2017-Sep-20 08:28N 37°46' W 122°18'0 0.0
2017-Sep-20 07:58N 37°46' W 122°18'0 0.0
2017-Sep-20 07:28N 37°46' W 122°18'0 0.0
2017-Sep-20 06:58N 37°46' W 122°18'0 0.0
2017-Sep-20 06:28N 37°46' W 122°18'0 0.0
2017-Sep-20 05:57N 37°46' W 122°18'0 0.0
2017-Sep-20 05:28N 37°46' W 122°18'0 0.0
2017-Sep-20 04:58N 37°46' W 122°18'0 0.0
2017-Sep-20 04:28N 37°46' W 122°18'0 0.0
2017-Sep-20 03:57N 37°46' W 122°18'0 0.0
2017-Sep-20 03:31N 37°46' W 122°18'0 0.0
2017-Sep-20 03:00N 37°46' W 122°18'0 0.0
2017-Sep-20 02:25N 37°46' W 122°18'0 0.0
2017-Sep-20 02:00N 37°46' W 122°18'0 0.0
2017-Sep-20 01:27N 37°46' W 122°18'0 0.0
2017-Sep-20 01:00N 37°46' W 122°18'0 0.0
2017-Sep-20 00:31N 37°46' W 122°18'0 0.0
2017-Sep-20 00:00N 37°46' W 122°18'0 0.0
2017-Sep-19 23:31N 37°46' W 122°18'0 0.0
2017-Sep-19 23:01N 37°46' W 122°18'0 0.0
2017-Sep-19 22:28N 37°46' W 122°18'0 0.0
2017-Sep-19 21:57N 37°46' W 122°18'0 0.0
2017-Sep-19 21:31N 37°46' W 122°18'0 0.0
2017-Sep-19 21:00N 37°46' W 122°18'0 0.0
2017-Sep-19 20:31N 37°46' W 122°18'0 0.0
2017-Sep-19 20:00N 37°46' W 122°18'0 0.0
2017-Sep-19 19:31N 37°46' W 122°18'0 0.0
2017-Sep-19 19:01N 37°46' W 122°18'0 0.0
2017-Sep-19 18:30N 37°46' W 122°18'0 0.0
2017-Sep-19 18:00N 37°46' W 122°18'0 0.0
2017-Sep-19 17:31N 37°46' W 122°18'0 0.0
2017-Sep-19 17:00N 37°46' W 122°18'0 0.0
2017-Sep-19 16:31N 37°46' W 122°18'0 0.0
2017-Sep-19 16:00N 37°46' W 122°18'0 0.0
2017-Sep-19 15:29N 37°46' W 122°18'0 0.0
2017-Sep-19 14:59N 37°46' W 122°18'0 0.0
2017-Sep-19 14:29N 37°46' W 122°18'0 0.0
2017-Sep-19 13:59N 37°46' W 122°18'0 0.0
2017-Sep-19 13:29N 37°46' W 122°18'0 0.0
2017-Sep-19 12:59N 37°46' W 122°18'0 0.0
2017-Sep-19 12:29N 37°46' W 122°18'0 0.0
2017-Sep-19 11:59N 37°46' W 122°18'0 0.0
2017-Sep-19 11:29N 37°46' W 122°18'0 0.0
2017-Sep-19 10:59N 37°46' W 122°18'0 0.0
2017-Sep-19 10:29N 37°46' W 122°18'0 0.0
2017-Sep-19 09:59N 37°46' W 122°18'0 0.0
2017-Sep-19 09:29N 37°46' W 122°18'0 0.0
2017-Sep-19 08:59N 37°46' W 122°18'0 0.0
2017-Sep-19 08:29N 37°46' W 122°18'0 0.0
2017-Sep-19 07:59N 37°46' W 122°18'0 0.0
2017-Sep-19 07:29N 37°46' W 122°18'0 0.0
2017-Sep-19 06:59N 37°46' W 122°18'0 0.0
2017-Sep-19 06:29N 37°46' W 122°18'0 0.0
2017-Sep-19 05:59N 37°46' W 122°18'0 0.0
2017-Sep-19 05:29N 37°46' W 122°18'0 0.0
2017-Sep-19 04:59N 37°46' W 122°18'0 0.0
2017-Sep-19 04:29N 37°46' W 122°18'0 0.0
2017-Sep-19 03:59N 37°46' W 122°18'0 0.0
2017-Sep-19 03:29N 37°46' W 122°18'0 0.0
2017-Sep-19 02:59N 37°46' W 122°18'0 0.0
2017-Sep-19 02:29N 37°46' W 122°18'0 0.0
2017-Sep-19 01:59N 37°46' W 122°18'0 0.0
2017-Sep-19 01:29N 37°46' W 122°18'0 0.0
2017-Sep-19 00:59N 37°46' W 122°18'0 0.0
2017-Sep-19 00:29N 37°46' W 122°18'0 0.0
2017-Sep-18 23:59N 37°46' W 122°18'0 0.0
2017-Sep-18 23:29N 37°46' W 122°18'0 0.0
2017-Sep-18 22:59N 37°46' W 122°18'0 0.0
2017-Sep-18 22:29N 37°46' W 122°18'0 0.0
2017-Sep-18 21:59N 37°46' W 122°18'0 0.0
2017-Sep-18 21:29N 37°46' W 122°18'0 0.0
2017-Sep-18 20:59N 37°46' W 122°18'0 0.0
2017-Sep-18 20:29N 37°46' W 122°18'0 0.0
2017-Sep-18 19:59N 37°46' W 122°18'0 0.0
2017-Sep-18 19:29N 37°46' W 122°18'0 0.0
2017-Sep-18 18:59N 37°46' W 122°18'0 0.0
2017-Sep-18 18:29N 37°46' W 122°18'0 0.0
2017-Sep-18 17:59N 37°46' W 122°18'0 0.0
2017-Sep-18 17:29N 37°46' W 122°18'0 0.0
2017-Sep-18 16:59N 37°46' W 122°18'0 0.0
2017-Sep-18 16:29N 37°46' W 122°18'0 0.0
2017-Sep-18 15:59N 37°46' W 122°18'0 0.0
2017-Sep-18 15:29N 37°46' W 122°18'0 0.0
2017-Sep-18 14:59N 37°46' W 122°18'0 0.0
2017-Sep-18 14:29N 37°46' W 122°18'0 0.0
2017-Sep-18 13:59N 37°46' W 122°18'0 0.0
2017-Sep-18 13:29N 37°46' W 122°18'0 0.0
2017-Sep-18 12:59N 37°46' W 122°18'0 0.0
2017-Sep-18 12:29N 37°46' W 122°18'0 0.0
2017-Sep-18 11:59N 37°46' W 122°18'0 0.0
2017-Sep-18 11:29N 37°46' W 122°18'0 0.0
2017-Sep-18 10:59N 37°46' W 122°18'0 0.0
2017-Sep-18 10:29N 37°46' W 122°18'0 0.0
2017-Sep-18 09:59N 37°46' W 122°18'0 0.0
2017-Sep-18 09:29N 37°46' W 122°18'0 0.0
2017-Sep-18 08:59N 37°46' W 122°18'0 0.0
2017-Sep-18 08:29N 37°46' W 122°18'0 0.0
2017-Sep-18 07:59N 37°46' W 122°18'0 0.0
2017-Sep-18 07:29N 37°46' W 122°18'0 0.0
2017-Sep-18 06:59N 37°46' W 122°18'0 0.0
2017-Sep-18 06:29N 37°46' W 122°18'0 0.0
2017-Sep-18 05:59N 37°46' W 122°18'0 0.0
2017-Sep-18 05:29N 37°46' W 122°18'0 0.0
2017-Sep-18 04:59N 37°46' W 122°18'0 0.0
2017-Sep-18 04:29N 37°46' W 122°18'0 0.0
2017-Sep-18 03:59N 37°46' W 122°18'0 0.0
2017-Sep-18 03:29N 37°46' W 122°18'0 0.0
2017-Sep-18 02:59N 37°46' W 122°18'0 0.0
2017-Sep-18 02:29N 37°46' W 122°18'0 0.0
2017-Sep-18 01:59N 37°46' W 122°18'0 0.0
2017-Sep-18 01:29N 37°46' W 122°18'0 0.0
2017-Sep-18 00:59N 37°46' W 122°18'0 0.0
2017-Sep-18 00:29N 37°46' W 122°18'0 0.0
2017-Sep-17 23:59N 37°46' W 122°18'0 0.0
2017-Sep-17 23:29N 37°46' W 122°18'0 0.0
2017-Sep-17 22:59N 37°46' W 122°18'0 0.0
2017-Sep-17 22:29N 37°46' W 122°18'0 0.0
2017-Sep-17 21:59N 37°46' W 122°18'0 0.0
2017-Sep-17 21:29N 37°46' W 122°18'0 0.0
2017-Sep-17 20:59N 37°46' W 122°18'0 0.0
2017-Sep-17 20:29N 37°46' W 122°18'0 0.0
2017-Sep-17 19:59N 37°46' W 122°18'0 0.0
2017-Sep-17 19:29N 37°46' W 122°18'0 0.0
2017-Sep-17 18:59N 37°46' W 122°18'0 0.0
2017-Sep-17 18:29N 37°46' W 122°18'0 0.0
2017-Sep-17 17:59N 37°46' W 122°18'0 0.0
2017-Sep-17 17:29N 37°46' W 122°18'0 0.0
2017-Sep-17 16:59N 37°46' W 122°18'0 0.0
2017-Sep-17 16:29N 37°46' W 122°18'0 0.0
2017-Sep-17 15:59N 37°46' W 122°18'0 0.0
2017-Sep-17 15:29N 37°46' W 122°18'0 0.0
2017-Sep-17 14:59N 37°46' W 122°18'0 0.0
2017-Sep-17 14:29N 37°46' W 122°18'0 0.0
2017-Sep-17 13:59N 37°46' W 122°18'0 0.0
2017-Sep-17 13:29N 37°46' W 122°18'0 0.0
2017-Sep-17 12:59N 37°46' W 122°18'0 0.0
2017-Sep-17 12:29N 37°46' W 122°18'0 0.0
2017-Sep-17 11:59N 37°46' W 122°18'0 0.0
2017-Sep-17 11:29N 37°46' W 122°18'0 0.0
2017-Sep-17 10:59N 37°46' W 122°18'0 0.0
2017-Sep-17 10:29N 37°46' W 122°18'0 0.0
2017-Sep-17 09:59N 37°46' W 122°18'0 0.0
2017-Sep-17 09:29N 37°46' W 122°18'0 0.0
2017-Sep-17 08:59N 37°46' W 122°18'0 0.0
2017-Sep-17 08:29N 37°46' W 122°18'0 0.0
2017-Sep-17 07:59N 37°46' W 122°18'0 0.0
2017-Sep-17 07:29N 37°46' W 122°18'0 0.0
2017-Sep-17 06:59N 37°46' W 122°18'0 0.0
2017-Sep-17 06:29N 37°46' W 122°18'0 0.0
2017-Sep-17 05:59N 37°46' W 122°18'0 0.0
2017-Sep-17 05:29N 37°46' W 122°18'0 0.0
2017-Sep-17 04:59N 37°46' W 122°18'0 0.0
2017-Sep-17 04:29N 37°46' W 122°18'0 0.0
2017-Sep-17 03:59N 37°46' W 122°18'0 0.0
2017-Sep-17 03:29N 37°46' W 122°18'0 0.0
2017-Sep-17 02:59N 37°46' W 122°18'0 0.0
2017-Sep-17 02:29N 37°46' W 122°18'0 0.0
2017-Sep-17 01:59N 37°46' W 122°18'0 0.0
2017-Sep-17 01:29N 37°46' W 122°18'0 0.0
2017-Sep-17 00:59N 37°46' W 122°18'0 0.0
2017-Sep-17 00:29N 37°46' W 122°18'0 0.0
2017-Sep-16 23:59N 37°46' W 122°18'0 0.0
2017-Sep-16 23:29N 37°46' W 122°18'0 0.0
2017-Sep-16 22:59N 37°46' W 122°18'0 0.0
2017-Sep-16 22:29N 37°46' W 122°18'0 0.0
2017-Sep-16 21:59N 37°46' W 122°18'0 0.0
2017-Sep-16 21:29N 37°46' W 122°18'0 0.0
2017-Sep-16 20:59N 37°46' W 122°18'0 0.0
2017-Sep-16 20:29N 37°46' W 122°18'0 0.0
2017-Sep-16 19:59N 37°46' W 122°18'0 0.0
2017-Sep-16 19:29N 37°46' W 122°18'0 0.0
2017-Sep-16 18:59N 37°46' W 122°18'0 0.0
2017-Sep-16 18:29N 37°46' W 122°18'0 0.0
2017-Sep-16 17:59N 37°46' W 122°18'0 0.0
2017-Sep-16 17:29N 37°46' W 122°18'0 0.0
2017-Sep-16 16:59N 37°46' W 122°18'0 0.0
2017-Sep-16 16:29N 37°46' W 122°18'0 0.0
2017-Sep-16 15:59N 37°46' W 122°18'0 0.0
2017-Sep-16 15:29N 37°46' W 122°18'0 0.0
2017-Sep-16 14:59N 37°46' W 122°18'0 0.0
2017-Sep-16 14:29N 37°46' W 122°18'0 0.0
2017-Sep-16 13:59N 37°46' W 122°18'0 0.0
2017-Sep-16 13:29N 37°46' W 122°18'0 0.0
2017-Sep-16 12:59N 37°46' W 122°18'0 0.0
2017-Sep-16 12:29N 37°46' W 122°18'0 0.0
2017-Sep-16 11:59N 37°46' W 122°18'0 0.0
2017-Sep-16 11:29N 37°46' W 122°18'0 0.0
2017-Sep-16 10:59N 37°46' W 122°18'0 0.0
2017-Sep-16 10:29N 37°46' W 122°18'0 0.0
2017-Sep-16 09:59N 37°46' W 122°18'0 0.0
2017-Sep-16 09:29N 37°46' W 122°18'0 0.0
2017-Sep-16 08:59N 37°46' W 122°18'0 0.0
2017-Sep-16 08:29N 37°46' W 122°18'0 0.0
2017-Sep-16 07:59N 37°46' W 122°18'0 0.0
2017-Sep-16 07:29N 37°46' W 122°18'0 0.0
2017-Sep-16 06:59N 37°46' W 122°18'0 0.0
2017-Sep-16 06:29N 37°46' W 122°18'0 0.0
2017-Sep-16 05:59N 37°46' W 122°18'0 0.0
2017-Sep-16 05:29N 37°46' W 122°18'0 0.0
2017-Sep-16 04:59N 37°46' W 122°18'0 0.0
2017-Sep-16 04:29N 37°46' W 122°18'0 0.0
2017-Sep-16 03:59N 37°46' W 122°18'0 0.0
2017-Sep-16 03:29N 37°46' W 122°18'0 0.0
2017-Sep-16 02:59N 37°46' W 122°18'0 0.0
2017-Sep-16 02:29N 37°46' W 122°18'0 0.0
2017-Sep-16 01:59N 37°46' W 122°18'0 0.0
2017-Sep-16 01:29N 37°46' W 122°18'0 0.0
2017-Sep-16 00:59N 37°46' W 122°18'0 0.0
2017-Sep-16 00:29N 37°46' W 122°18'0 0.0
2017-Sep-15 23:59N 37°46' W 122°18'0 0.0
2017-Sep-15 23:29N 37°46' W 122°18'0 0.0
2017-Sep-15 22:59N 37°46' W 122°18'0 0.0
2017-Sep-15 22:29N 37°46' W 122°18'0 0.0
2017-Sep-15 21:59N 37°46' W 122°18'0 0.0
2017-Sep-15 21:29N 37°46' W 122°18'0 0.0
2017-Sep-15 20:59N 37°46' W 122°18'0 0.0
2017-Sep-15 20:29N 37°46' W 122°18'0 0.0
2017-Sep-15 19:59N 37°46' W 122°18'0 0.0
2017-Sep-15 19:29N 37°46' W 122°18'0 0.0
2017-Sep-15 18:59N 37°46' W 122°18'0 0.0
2017-Sep-15 18:29N 37°46' W 122°18'0 0.0
2017-Sep-15 17:59N 37°46' W 122°18'0 0.0
2017-Sep-15 17:29N 37°46' W 122°18'0 0.0
2017-Sep-15 16:59N 37°46' W 122°18'0 0.0
2017-Sep-15 16:29N 37°46' W 122°18'0 0.0
2017-Sep-15 15:59N 37°46' W 122°18'0 0.0
2017-Sep-15 15:29N 37°46' W 122°18'0 0.0
2017-Sep-15 14:59N 37°46' W 122°18'0 0.0
2017-Sep-15 14:29N 37°46' W 122°18'0 0.0
2017-Sep-15 13:59N 37°46' W 122°18'0 0.0
2017-Sep-15 13:29N 37°46' W 122°18'0 0.0
2017-Sep-15 12:59N 37°46' W 122°18'0 0.0
2017-Sep-15 12:29N 37°46' W 122°18'0 0.0
2017-Sep-15 11:59N 37°46' W 122°18'0 0.0
2017-Sep-15 11:29N 37°46' W 122°18'0 0.0
2017-Sep-15 10:59N 37°46' W 122°18'0 0.0
2017-Sep-15 10:29N 37°46' W 122°18'0 0.0
2017-Sep-15 09:59N 37°46' W 122°18'0 0.0
2017-Sep-15 09:29N 37°46' W 122°18'0 0.0
2017-Sep-15 08:59N 37°46' W 122°18'0 0.0
2017-Sep-15 08:29N 37°46' W 122°18'0 0.0
2017-Sep-15 07:59N 37°46' W 122°18'0 0.0
2017-Sep-15 07:29N 37°46' W 122°18'0 0.0
2017-Sep-15 06:59N 37°46' W 122°18'0 0.0
2017-Sep-15 06:29N 37°46' W 122°18'0 0.0
2017-Sep-15 05:59N 37°46' W 122°18'0 0.0
2017-Sep-15 05:29N 37°46' W 122°18'0 0.0
2017-Sep-15 04:59N 37°46' W 122°18'0 0.0
2017-Sep-15 04:29N 37°46' W 122°18'0 0.0
2017-Sep-15 03:59N 37°46' W 122°18'0 0.0
2017-Sep-15 03:29N 37°46' W 122°18'0 0.0
2017-Sep-15 03:00N 37°46' W 122°18'0 0.0
2017-Sep-15 02:29N 37°46' W 122°18'0 0.0
2017-Sep-15 01:59N 37°46' W 122°18'0 0.0
2017-Sep-15 01:29N 37°46' W 122°18'0 0.0
2017-Sep-15 00:59N 37°46' W 122°18'0 0.0
2017-Sep-15 00:29N 37°46' W 122°18'0 0.0
2017-Sep-14 23:59N 37°46' W 122°18'0 0.0
2017-Sep-14 23:29N 37°46' W 122°18'  

Dump ship's entire track history